sensor_id;sensor_type;location;lat;lon;timestamp;pressure;altitude;pressure_sealevel;temperature;humidity
76627;BME280;65519;53.230;10.390;2023-04-25T00:00:31;100157.22;;;7.62;81.95
76627;BME280;65519;53.230;10.390;2023-04-25T00:02:56;100154.25;;;7.63;81.57
76627;BME280;65519;53.230;10.390;2023-04-25T00:05:23;100154.00;;;7.70;81.20
76627;BME280;65519;53.230;10.390;2023-04-25T00:07:49;100149.66;;;7.69;81.43
76627;BME280;65519;53.230;10.390;2023-04-25T00:10:15;100152.09;;;7.70;81.77
76627;BME280;65519;53.230;10.390;2023-04-25T00:12:41;100149.19;;;7.77;81.22
76627;BME280;65519;53.230;10.390;2023-04-25T00:15:07;100147.78;;;7.75;80.96
76627;BME280;65519;53.230;10.390;2023-04-25T00:17:33;100152.09;;;7.70;81.61
76627;BME280;65519;53.230;10.390;2023-04-25T00:20:00;100153.22;;;7.80;80.53
76627;BME280;65519;53.230;10.390;2023-04-25T00:22:26;100154.56;;;7.72;81.28
76627;BME280;65519;53.230;10.390;2023-04-25T00:24:51;100157.63;;;7.86;81.60
76627;BME280;65519;53.230;10.390;2023-04-25T00:27:18;100158.97;;;7.83;82.00
76627;BME280;65519;53.230;10.390;2023-04-25T00:29:44;100158.94;;;7.78;81.10
76627;BME280;65519;53.230;10.390;2023-04-25T00:32:09;100158.41;;;7.81;80.57
76627;BME280;65519;53.230;10.390;2023-04-25T00:34:35;100155.88;;;7.64;82.24
76627;BME280;65519;53.230;10.390;2023-04-25T00:37:01;100163.16;;;7.59;82.93
76627;BME280;65519;53.230;10.390;2023-04-25T00:39:27;100162.13;;;7.65;82.48
76627;BME280;65519;53.230;10.390;2023-04-25T00:41:54;100164.59;;;7.66;82.46
76627;BME280;65519;53.230;10.390;2023-04-25T00:44:20;100170.78;;;7.62;83.46
76627;BME280;65519;53.230;10.390;2023-04-25T00:46:47;100168.06;;;7.62;83.06
76627;BME280;65519;53.230;10.390;2023-04-25T00:49:14;100172.44;;;7.68;83.64
76627;BME280;65519;53.230;10.390;2023-04-25T00:51:42;100169.81;;;7.78;84.31
76627;BME280;65519;53.230;10.390;2023-04-25T00:54:10;100160.03;;;7.77;84.27
76627;BME280;65519;53.230;10.390;2023-04-25T00:56:35;100161.06;;;7.66;84.66
76627;BME280;65519;53.230;10.390;2023-04-25T00:59:01;100164.84;;;7.70;84.28
76627;BME280;65519;53.230;10.390;2023-04-25T01:01:26;100162.69;;;7.67;84.92
76627;BME280;65519;53.230;10.390;2023-04-25T01:03:53;100165.66;;;7.65;84.10
76627;BME280;65519;53.230;10.390;2023-04-25T01:06:19;100166.13;;;7.57;84.24
76627;BME280;65519;53.230;10.390;2023-04-25T01:08:45;100166.38;;;7.51;85.18
76627;BME280;65519;53.230;10.390;2023-04-25T01:11:10;100161.81;;;7.56;84.98
76627;BME280;65519;53.230;10.390;2023-04-25T01:13:36;100155.00;;;7.54;84.11
76627;BME280;65519;53.230;10.390;2023-04-25T01:16:02;100161.75;;;7.51;84.17
76627;BME280;65519;53.230;10.390;2023-04-25T01:18:28;100171.56;;;7.57;84.01
76627;BME280;65519;53.230;10.390;2023-04-25T01:20:54;100147.75;;;7.22;83.63
76627;BME280;65519;53.230;10.390;2023-04-25T01:23:20;100168.38;;;7.23;84.12
76627;BME280;65519;53.230;10.390;2023-04-25T01:25:47;100183.25;;;7.21;84.65
76627;BME280;65519;53.230;10.390;2023-04-25T01:28:13;100174.84;;;7.22;84.11
76627;BME280;65519;53.230;10.390;2023-04-25T01:30:54;100181.09;;;7.23;84.04
76627;BME280;65519;53.230;10.390;2023-04-25T01:33:21;100178.59;;;7.16;83.77
76627;BME280;65519;53.230;10.390;2023-04-25T01:35:46;100181.38;;;7.26;85.05
76627;BME280;65519;53.230;10.390;2023-04-25T01:38:13;100180.47;;;7.11;84.26
76627;BME280;65519;53.230;10.390;2023-04-25T01:40:40;100185.66;;;7.17;83.89
76627;BME280;65519;53.230;10.390;2023-04-25T01:43:05;100189.69;;;7.15;84.22
76627;BME280;65519;53.230;10.390;2023-04-25T01:45:31;100191.06;;;7.17;83.36
76627;BME280;65519;53.230;10.390;2023-04-25T01:47:56;100188.28;;;7.07;82.45
76627;BME280;65519;53.230;10.390;2023-04-25T01:50:24;100199.72;;;7.14;82.48
76627;BME280;65519;53.230;10.390;2023-04-25T01:52:50;100189.91;;;7.08;82.74
76627;BME280;65519;53.230;10.390;2023-04-25T01:55:15;100197.47;;;7.06;82.48
76627;BME280;65519;53.230;10.390;2023-04-25T01:57:41;100193.75;;;7.12;83.02
76627;BME280;65519;53.230;10.390;2023-04-25T02:00:07;100191.56;;;7.09;82.40
76627;BME280;65519;53.230;10.390;2023-04-25T02:02:34;100196.47;;;7.12;82.42
76627;BME280;65519;53.230;10.390;2023-04-25T02:05:00;100205.03;;;7.04;81.88
76627;BME280;65519;53.230;10.390;2023-04-25T02:07:26;100208.31;;;7.06;81.31
76627;BME280;65519;53.230;10.390;2023-04-25T02:13:13;100215.88;;;7.04;82.78
76627;BME280;65519;53.230;10.390;2023-04-25T02:15:38;100212.09;;;7.05;81.90
76627;BME280;65519;53.230;10.390;2023-04-25T02:18:04;100218.88;;;7.03;82.50
76627;BME280;65519;53.230;10.390;2023-04-25T02:20:31;100220.69;;;6.92;82.16
76627;BME280;65519;53.230;10.390;2023-04-25T02:22:57;100228.09;;;7.02;82.32
76627;BME280;65519;53.230;10.390;2023-04-25T02:25:22;100225.31;;;6.96;81.79
76627;BME280;65519;53.230;10.390;2023-04-25T02:27:48;100233.31;;;6.81;82.61
76627;BME280;65519;53.230;10.390;2023-04-25T02:30:13;100227.09;;;6.86;82.75
76627;BME280;65519;53.230;10.390;2023-04-25T02:32:39;100230.88;;;6.85;82.32
76627;BME280;65519;53.230;10.390;2023-04-25T02:35:05;100225.88;;;6.99;83.21
76627;BME280;65519;53.230;10.390;2023-04-25T02:37:32;100221.47;;;6.92;82.04
76627;BME280;65519;53.230;10.390;2023-04-25T02:39:58;100233.59;;;6.85;81.09
76627;BME280;65519;53.230;10.390;2023-04-25T02:42:23;100230.59;;;6.81;81.83
76627;BME280;65519;53.230;10.390;2023-04-25T02:44:48;100230.63;;;6.86;81.65
76627;BME280;65519;53.230;10.390;2023-04-25T02:47:14;100234.41;;;6.85;81.25
76627;BME280;65519;53.230;10.390;2023-04-25T02:49:39;100232.53;;;6.86;80.90
76627;BME280;65519;53.230;10.390;2023-04-25T02:52:05;100233.56;;;6.80;81.08
76627;BME280;65519;53.230;10.390;2023-04-25T02:54:31;100238.28;;;6.68;80.70
76627;BME280;65519;53.230;10.390;2023-04-25T02:56:56;100235.38;;;6.74;81.01
76627;BME280;65519;53.230;10.390;2023-04-25T02:59:22;100231.50;;;6.65;79.19
76627;BME280;65519;53.230;10.390;2023-04-25T03:01:47;100252.09;;;6.66;79.23
76627;BME280;65519;53.230;10.390;2023-04-25T03:04:13;100253.47;;;6.69;79.27
76627;BME280;65519;53.230;10.390;2023-04-25T03:06:38;100256.19;;;6.69;78.88
76627;BME280;65519;53.230;10.390;2023-04-25T03:09:03;100259.84;;;6.57;79.21
76627;BME280;65519;53.230;10.390;2023-04-25T03:11:29;100269.50;;;6.48;78.48
76627;BME280;65519;53.230;10.390;2023-04-25T03:13:54;100264.91;;;6.49;78.68
76627;BME280;65519;53.230;10.390;2023-04-25T03:16:20;100260.34;;;6.54;77.40
76627;BME280;65519;53.230;10.390;2023-04-25T03:18:46;100264.31;;;6.47;77.25
76627;BME280;65519;53.230;10.390;2023-04-25T03:21:11;100268.41;;;6.49;77.30
76627;BME280;65519;53.230;10.390;2023-04-25T03:23:36;100270.31;;;6.49;77.08
76627;BME280;65519;53.230;10.390;2023-04-25T03:26:02;100266.91;;;6.58;76.91
76627;BME280;65519;53.230;10.390;2023-04-25T03:28:27;100277.88;;;6.47;76.86
76627;BME280;65519;53.230;10.390;2023-04-25T03:30:53;100271.75;;;6.56;76.11
76627;BME280;65519;53.230;10.390;2023-04-25T03:33:19;100276.47;;;6.44;76.32
76627;BME280;65519;53.230;10.390;2023-04-25T03:35:44;100275.16;;;6.47;75.40
76627;BME280;65519;53.230;10.390;2023-04-25T03:38:10;100277.91;;;6.52;76.05
76627;BME280;65519;53.230;10.390;2023-04-25T03:40:35;100283.28;;;6.47;76.04
76627;BME280;65519;53.230;10.390;2023-04-25T03:43:00;100275.53;;;6.55;75.73
76627;BME280;65519;53.230;10.390;2023-04-25T03:45:26;100279.38;;;6.59;74.92
76627;BME280;65519;53.230;10.390;2023-04-25T03:47:51;100289.69;;;6.63;74.86
76627;BME280;65519;53.230;10.390;2023-04-25T03:50:16;100295.22;;;6.51;74.73
76627;BME280;65519;53.230;10.390;2023-04-25T03:52:43;100286.28;;;6.50;75.27
76627;BME280;65519;53.230;10.390;2023-04-25T03:55:08;100289.50;;;6.47;74.98
76627;BME280;65519;53.230;10.390;2023-04-25T03:57:34;100295.44;;;6.44;75.78
76627;BME280;65519;53.230;10.390;2023-04-25T03:59:59;100304.53;;;6.38;75.04
76627;BME280;65519;53.230;10.390;2023-04-25T04:02:25;100301.56;;;6.40;75.09
76627;BME280;65519;53.230;10.390;2023-04-25T04:04:50;100306.81;;;6.46;75.00
76627;BME280;65519;53.230;10.390;2023-04-25T04:07:16;100311.47;;;6.29;75.80
76627;BME280;65519;53.230;10.390;2023-04-25T04:09:41;100317.88;;;6.23;74.84
76627;BME280;65519;53.230;10.390;2023-04-25T04:12:06;100318.06;;;6.16;74.90
76627;BME280;65519;53.230;10.390;2023-04-25T04:14:32;100324.78;;;6.14;74.25
76627;BME280;65519;53.230;10.390;2023-04-25T04:16:57;100321.84;;;6.15;74.37
76627;BME280;65519;53.230;10.390;2023-04-25T04:19:22;100317.25;;;6.16;74.74
76627;BME280;65519;53.230;10.390;2023-04-25T04:21:48;100321.94;;;6.04;74.97
76627;BME280;65519;53.230;10.390;2023-04-25T04:24:13;100313.69;;;5.94;74.14
76627;BME280;65519;53.230;10.390;2023-04-25T04:26:40;100326.19;;;6.00;74.62
76627;BME280;65519;53.230;10.390;2023-04-25T04:29:05;100328.66;;;6.01;73.23
76627;BME280;65519;53.230;10.390;2023-04-25T04:31:32;100331.47;;;5.90;73.99
76627;BME280;65519;53.230;10.390;2023-04-25T04:33:57;100337.94;;;5.89;74.15
76627;BME280;65519;53.230;10.390;2023-04-25T04:36:23;100337.59;;;6.02;74.80
76627;BME280;65519;53.230;10.390;2023-04-25T04:38:51;100333.16;;;5.96;74.40
76627;BME280;65519;53.230;10.390;2023-04-25T04:41:17;100338.91;;;5.99;73.26
76627;BME280;65519;53.230;10.390;2023-04-25T04:43:44;100346.78;;;6.01;73.13
76627;BME280;65519;53.230;10.390;2023-04-25T04:46:10;100347.78;;;5.95;73.45
76627;BME280;65519;53.230;10.390;2023-04-25T04:48:35;100352.38;;;5.94;74.78
76627;BME280;65519;53.230;10.390;2023-04-25T04:51:01;100354.56;;;5.97;74.45
76627;BME280;65519;53.230;10.390;2023-04-25T04:53:26;100360.38;;;5.89;73.48
76627;BME280;65519;53.230;10.390;2023-04-25T04:55:52;100354.81;;;5.96;73.26
76627;BME280;65519;53.230;10.390;2023-04-25T04:58:17;100356.97;;;5.94;73.03
76627;BME280;65519;53.230;10.390;2023-04-25T05:00:43;100349.72;;;5.82;73.42
76627;BME280;65519;53.230;10.390;2023-04-25T05:03:08;100356.97;;;5.94;73.55
76627;BME280;65519;53.230;10.390;2023-04-25T05:05:34;100358.91;;;5.81;72.57
76627;BME280;65519;53.230;10.390;2023-04-25T05:08:00;100356.63;;;5.90;73.12
76627;BME280;65519;53.230;10.390;2023-04-25T05:10:25;100361.63;;;5.98;73.43
76627;BME280;65519;53.230;10.390;2023-04-25T05:12:50;100366.44;;;5.96;72.73
76627;BME280;65519;53.230;10.390;2023-04-25T05:15:16;100366.13;;;5.93;71.44
76627;BME280;65519;53.230;10.390;2023-04-25T05:17:41;100360.22;;;5.96;72.09
76627;BME280;65519;53.230;10.390;2023-04-25T05:20:07;100372.78;;;6.02;70.75
76627;BME280;65519;53.230;10.390;2023-04-25T05:22:34;100380.03;;;6.18;71.37
76627;BME280;65519;53.230;10.390;2023-04-25T05:25:00;100373.75;;;6.12;71.16
76627;BME280;65519;53.230;10.390;2023-04-25T05:27:25;100378.41;;;6.17;69.34
76627;BME280;65519;53.230;10.390;2023-04-25T05:29:51;100384.00;;;6.27;69.80
76627;BME280;65519;53.230;10.390;2023-04-25T05:32:17;100385.41;;;6.13;69.73
76627;BME280;65519;53.230;10.390;2023-04-25T05:34:42;100387.75;;;6.26;68.44
76627;BME280;65519;53.230;10.390;2023-04-25T05:37:08;100384.63;;;6.34;70.38
76627;BME280;65519;53.230;10.390;2023-04-25T05:39:33;100387.81;;;6.48;69.51
76627;BME280;65519;53.230;10.390;2023-04-25T05:41:59;100378.69;;;6.54;68.26
76627;BME280;65519;53.230;10.390;2023-04-25T05:44:24;100391.09;;;6.72;67.54
76627;BME280;65519;53.230;10.390;2023-04-25T05:46:50;100393.16;;;6.81;67.53
76627;BME280;65519;53.230;10.390;2023-04-25T05:49:15;100395.03;;;6.81;66.72
76627;BME280;65519;53.230;10.390;2023-04-25T05:51:41;100396.53;;;6.93;67.02
76627;BME280;65519;53.230;10.390;2023-04-25T05:54:06;100398.84;;;6.85;66.25
76627;BME280;65519;53.230;10.390;2023-04-25T05:56:32;100398.28;;;6.83;67.59
76627;BME280;65519;53.230;10.390;2023-04-25T05:58:57;100403.94;;;7.03;65.37
76627;BME280;65519;53.230;10.390;2023-04-25T06:01:23;100411.59;;;7.06;65.33
76627;BME280;65519;53.230;10.390;2023-04-25T06:03:48;100417.25;;;7.05;65.80
76627;BME280;65519;53.230;10.390;2023-04-25T06:06:14;100418.59;;;7.02;64.02
76627;BME280;65519;53.230;10.390;2023-04-25T06:08:40;100413.78;;;6.87;65.22
76627;BME280;65519;53.230;10.390;2023-04-25T06:11:05;100423.94;;;6.97;64.62
76627;BME280;65519;53.230;10.390;2023-04-25T06:13:31;100428.03;;;6.78;65.25
76627;BME280;65519;53.230;10.390;2023-04-25T06:15:56;100410.88;;;6.72;64.00
76627;BME280;65519;53.230;10.390;2023-04-25T06:18:22;100425.88;;;6.58;66.30
76627;BME280;65519;53.230;10.390;2023-04-25T06:20:47;100419.09;;;6.60;66.19
76627;BME280;65519;53.230;10.390;2023-04-25T06:23:12;100425.53;;;6.54;66.20
76627;BME280;65519;53.230;10.390;2023-04-25T06:25:39;100423.53;;;6.67;66.27
76627;BME280;65519;53.230;10.390;2023-04-25T06:28:05;100426.06;;;6.73;66.02
76627;BME280;65519;53.230;10.390;2023-04-25T06:30:30;100427.47;;;6.76;66.78
76627;BME280;65519;53.230;10.390;2023-04-25T06:32:56;100419.69;;;6.63;65.56
76627;BME280;65519;53.230;10.390;2023-04-25T06:35:21;100424.13;;;6.69;65.18
76627;BME280;65519;53.230;10.390;2023-04-25T06:37:46;100419.47;;;6.86;68.27
76627;BME280;65519;53.230;10.390;2023-04-25T06:40:12;100427.13;;;6.72;66.45
76627;BME280;65519;53.230;10.390;2023-04-25T06:42:37;100416.03;;;6.74;65.05
76627;BME280;65519;53.230;10.390;2023-04-25T06:45:03;100425.91;;;6.80;65.89
76627;BME280;65519;53.230;10.390;2023-04-25T06:47:28;100426.06;;;6.73;65.95
76627;BME280;65519;53.230;10.390;2023-04-25T06:49:55;100422.53;;;6.73;65.09
76627;BME280;65519;53.230;10.390;2023-04-25T06:52:20;100428.91;;;6.83;65.35
76627;BME280;65519;53.230;10.390;2023-04-25T06:54:46;100423.88;;;6.70;65.51
76627;BME280;65519;53.230;10.390;2023-04-25T06:57:11;100440.75;;;6.77;65.45
76627;BME280;65519;53.230;10.390;2023-04-25T06:59:37;100431.31;;;6.80;66.52
76627;BME280;65519;53.230;10.390;2023-04-25T07:02:02;100443.28;;;6.84;65.89
76627;BME280;65519;53.230;10.390;2023-04-25T07:04:28;100443.34;;;6.89;65.50
76627;BME280;65519;53.230;10.390;2023-04-25T07:06:54;100443.63;;;6.71;65.84
76627;BME280;65519;53.230;10.390;2023-04-25T07:09:20;100441.50;;;6.73;66.97
76627;BME280;65519;53.230;10.390;2023-04-25T07:11:45;100468.56;;;6.89;66.42
76627;BME280;65519;53.230;10.390;2023-04-25T07:14:11;100469.19;;;6.96;65.88
76627;BME280;65519;53.230;10.390;2023-04-25T07:16:36;100460.72;;;6.93;66.26
76627;BME280;65519;53.230;10.390;2023-04-25T07:19:02;100462.63;;;6.92;64.91
76627;BME280;65519;53.230;10.390;2023-04-25T07:21:27;100471.75;;;6.86;66.28
76627;BME280;65519;53.230;10.390;2023-04-25T07:23:52;100457.84;;;6.78;65.94
76627;BME280;65519;53.230;10.390;2023-04-25T07:26:18;100470.88;;;6.81;65.51
76627;BME280;65519;53.230;10.390;2023-04-25T07:28:43;100468.44;;;6.79;66.39
76627;BME280;65519;53.230;10.390;2023-04-25T07:31:09;100468.03;;;6.92;67.04
76627;BME280;65519;53.230;10.390;2023-04-25T07:33:34;100462.22;;;7.01;65.31
76627;BME280;65519;53.230;10.390;2023-04-25T07:36:00;100464.97;;;7.06;65.92
76627;BME280;65519;53.230;10.390;2023-04-25T07:38:25;100464.59;;;6.97;65.88
76627;BME280;65519;53.230;10.390;2023-04-25T07:40:51;100473.06;;;7.01;66.05
76627;BME280;65519;53.230;10.390;2023-04-25T07:43:17;100469.81;;;7.04;66.17
76627;BME280;65519;53.230;10.390;2023-04-25T07:45:43;100469.00;;;7.03;63.48
76627;BME280;65519;53.230;10.390;2023-04-25T07:48:08;100466.38;;;7.08;63.98
76627;BME280;65519;53.230;10.390;2023-04-25T07:50:34;100468.13;;;7.19;63.62
76627;BME280;65519;53.230;10.390;2023-04-25T07:52:59;100476.34;;;7.24;62.42
76627;BME280;65519;53.230;10.390;2023-04-25T07:55:25;100486.91;;;7.48;62.60
76627;BME280;65519;53.230;10.390;2023-04-25T07:57:50;100490.69;;;7.47;62.95
76627;BME280;65519;53.230;10.390;2023-04-25T08:00:15;100479.22;;;7.40;63.66
76627;BME280;65519;53.230;10.390;2023-04-25T08:02:41;100492.66;;;7.29;62.66
76627;BME280;65519;53.230;10.390;2023-04-25T08:05:07;100480.25;;;7.33;63.19
76627;BME280;65519;53.230;10.390;2023-04-25T08:07:33;100493.00;;;7.33;63.01
76627;BME280;65519;53.230;10.390;2023-04-25T08:09:59;100493.97;;;7.05;62.46
76627;BME280;65519;53.230;10.390;2023-04-25T08:12:24;100493.97;;;7.27;63.55
76627;BME280;65519;53.230;10.390;2023-04-25T08:14:50;100499.66;;;7.47;63.38
76627;BME280;65519;53.230;10.390;2023-04-25T08:17:15;100505.47;;;7.34;63.62
76627;BME280;65519;53.230;10.390;2023-04-25T08:19:41;100511.84;;;7.45;63.20
76627;BME280;65519;53.230;10.390;2023-04-25T08:22:06;100512.13;;;7.48;62.88
76627;BME280;65519;53.230;10.390;2023-04-25T08:24:32;100520.28;;;7.48;61.88
76627;BME280;65519;53.230;10.390;2023-04-25T08:26:57;100511.16;;;7.32;62.47
76627;BME280;65519;53.230;10.390;2023-04-25T08:29:24;100513.34;;;7.36;63.38
76627;BME280;65519;53.230;10.390;2023-04-25T08:31:51;100505.78;;;7.38;63.15
76627;BME280;65519;53.230;10.390;2023-04-25T08:34:18;100513.31;;;7.57;63.23
76627;BME280;65519;53.230;10.390;2023-04-25T08:36:43;100523.28;;;7.74;61.35
76627;BME280;65519;53.230;10.390;2023-04-25T08:39:08;100528.81;;;7.57;61.21
76627;BME280;65519;53.230;10.390;2023-04-25T08:41:36;100529.19;;;7.65;60.93
76627;BME280;65519;53.230;10.390;2023-04-25T08:44:03;100517.50;;;7.65;60.46
76627;BME280;65519;53.230;10.390;2023-04-25T08:46:29;100530.16;;;7.81;62.09
76627;BME280;65519;53.230;10.390;2023-04-25T08:49:00;100522.47;;;7.73;60.84
76627;BME280;65519;53.230;10.390;2023-04-25T08:51:26;100529.88;;;7.78;58.88
76627;BME280;65519;53.230;10.390;2023-04-25T08:53:54;100532.81;;;7.76;60.00
76627;BME280;65519;53.230;10.390;2023-04-25T08:56:19;100539.47;;;7.90;59.87
76627;BME280;65519;53.230;10.390;2023-04-25T08:58:50;100542.75;;;7.92;57.78
76627;BME280;65519;53.230;10.390;2023-04-25T09:01:15;100539.59;;;8.00;59.04
76627;BME280;65519;53.230;10.390;2023-04-25T09:03:42;100538.63;;;8.38;59.44
76627;BME280;65519;53.230;10.390;2023-04-25T09:06:10;100532.22;;;8.50;56.44
76627;BME280;65519;53.230;10.390;2023-04-25T09:08:36;100546.00;;;8.75;55.70
76627;BME280;65519;53.230;10.390;2023-04-25T09:11:01;100535.91;;;8.38;54.86
76627;BME280;65519;53.230;10.390;2023-04-25T09:13:28;100538.75;;;8.22;55.36
76627;BME280;65519;53.230;10.390;2023-04-25T09:15:57;100551.69;;;8.15;56.92
76627;BME280;65519;53.230;10.390;2023-04-25T09:18:26;100561.44;;;8.11;56.76
76627;BME280;65519;53.230;10.390;2023-04-25T09:20:53;100566.91;;;8.16;57.65
76627;BME280;65519;53.230;10.390;2023-04-25T09:23:20;100569.25;;;8.07;58.24
76627;BME280;65519;53.230;10.390;2023-04-25T09:25:51;100566.97;;;8.21;58.58
76627;BME280;65519;53.230;10.390;2023-04-25T09:28:23;100576.38;;;8.13;58.77
76627;BME280;65519;53.230;10.390;2023-04-25T09:30:54;100575.38;;;8.19;58.43
76627;BME280;65519;53.230;10.390;2023-04-25T09:33:20;100590.50;;;7.88;57.33
76627;BME280;65519;53.230;10.390;2023-04-25T09:35:52;100585.63;;;7.90;56.73
76627;BME280;65519;53.230;10.390;2023-04-25T09:38:20;100586.88;;;8.53;62.01
76627;BME280;65519;53.230;10.390;2023-04-25T09:40:46;100572.81;;;9.45;60.29
76627;BME280;65519;53.230;10.390;2023-04-25T09:43:23;100581.78;;;8.99;56.89
76627;BME280;65519;53.230;10.390;2023-04-25T09:45:49;100595.28;;;8.57;56.54
76627;BME280;65519;53.230;10.390;2023-04-25T09:48:19;100591.19;;;8.27;57.71
76627;BME280;65519;53.230;10.390;2023-04-25T09:50:47;100594.66;;;8.23;58.30
76627;BME280;65519;53.230;10.390;2023-04-25T09:53:29;100603.72;;;8.06;57.87
76627;BME280;65519;53.230;10.390;2023-04-25T09:55:55;100601.47;;;7.98;59.72
76627;BME280;65519;53.230;10.390;2023-04-25T09:58:23;100618.38;;;7.84;60.39
76627;BME280;65519;53.230;10.390;2023-04-25T10:00:50;100610.72;;;8.02;60.11
76627;BME280;65519;53.230;10.390;2023-04-25T10:03:17;100614.59;;;8.06;59.72
76627;BME280;65519;53.230;10.390;2023-04-25T10:05:46;100632.63;;;8.18;62.22
76627;BME280;65519;53.230;10.390;2023-04-25T10:08:14;100627.00;;;8.24;61.08
76627;BME280;65519;53.230;10.390;2023-04-25T10:10:41;100629.47;;;8.04;62.63
76627;BME280;65519;53.230;10.390;2023-04-25T10:13:08;100643.75;;;7.94;65.33
76627;BME280;65519;53.230;10.390;2023-04-25T10:15:37;100641.59;;;7.53;65.83
76627;BME280;65519;53.230;10.390;2023-04-25T10:18:02;100649.91;;;7.46;67.52
76627;BME280;65519;53.230;10.390;2023-04-25T10:20:29;100652.78;;;7.40;65.39
76627;BME280;65519;53.230;10.390;2023-04-25T10:22:58;100652.50;;;7.58;67.10
76627;BME280;65519;53.230;10.390;2023-04-25T10:25:28;100648.94;;;7.74;65.59
76627;BME280;65519;53.230;10.390;2023-04-25T10:27:54;100651.69;;;8.23;65.77
76627;BME280;65519;53.230;10.390;2023-04-25T10:30:19;100649.09;;;8.33;62.98
76627;BME280;65519;53.230;10.390;2023-04-25T10:32:46;100668.63;;;8.30;60.57
76627;BME280;65519;53.230;10.390;2023-04-25T10:35:24;100667.47;;;8.26;63.63
76627;BME280;65519;53.230;10.390;2023-04-25T10:40:31;100670.44;;;7.81;63.82
76627;BME280;65519;53.230;10.390;2023-04-25T10:46:02;100649.13;;;7.67;63.40
76627;BME280;65519;53.230;10.390;2023-04-25T10:48:29;100653.47;;;7.90;63.77
76627;BME280;65519;53.230;10.390;2023-04-25T10:51:11;100647.63;;;7.98;62.41
76627;BME280;65519;53.230;10.390;2023-04-25T10:53:37;100650.00;;;8.38;60.91
76627;BME280;65519;53.230;10.390;2023-04-25T10:56:19;100643.94;;;8.58;60.09
76627;BME280;65519;53.230;10.390;2023-04-25T10:58:45;100651.94;;;8.70;59.03
76627;BME280;65519;53.230;10.390;2023-04-25T11:01:19;100645.28;;;8.83;59.14
76627;BME280;65519;53.230;10.390;2023-04-25T11:03:45;100640.22;;;9.33;56.68
76627;BME280;65519;53.230;10.390;2023-04-25T11:06:22;100632.66;;;9.40;57.59
76627;BME280;65519;53.230;10.390;2023-04-25T11:08:49;100628.94;;;9.57;56.27
76627;BME280;65519;53.230;10.390;2023-04-25T11:11:18;100630.38;;;9.69;55.21
76627;BME280;65519;53.230;10.390;2023-04-25T11:13:48;100630.47;;;9.89;55.75
76627;BME280;65519;53.230;10.390;2023-04-25T11:16:13;100619.41;;;10.16;54.00
76627;BME280;65519;53.230;10.390;2023-04-25T11:18:43;100627.63;;;10.32;54.61
76627;BME280;65519;53.230;10.390;2023-04-25T11:21:09;100624.34;;;10.30;54.15
76627;BME280;65519;53.230;10.390;2023-04-25T11:23:35;100625.22;;;10.55;54.11
76627;BME280;65519;53.230;10.390;2023-04-25T11:26:02;100626.34;;;10.59;52.87
76627;BME280;65519;53.230;10.390;2023-04-25T11:28:28;100623.06;;;10.63;54.05
76627;BME280;65519;53.230;10.390;2023-04-25T11:30:53;100620.19;;;10.12;54.06
76627;BME280;65519;53.230;10.390;2023-04-25T11:33:23;100622.50;;;9.73;53.94
76627;BME280;65519;53.230;10.390;2023-04-25T11:35:49;100636.25;;;9.51;55.16
76627;BME280;65519;53.230;10.390;2023-04-25T11:38:15;100655.72;;;8.96;61.19
76627;BME280;65519;53.230;10.390;2023-04-25T11:40:41;100675.59;;;8.21;64.90
76627;BME280;65519;53.230;10.390;2023-04-25T11:43:06;100675.25;;;7.95;68.15
76627;BME280;65519;53.230;10.390;2023-04-25T11:45:32;100692.69;;;7.99;67.64
76627;BME280;65519;53.230;10.390;2023-04-25T11:47:57;100703.25;;;8.18;67.91
76627;BME280;65519;53.230;10.390;2023-04-25T11:50:23;100692.41;;;8.23;67.11
76627;BME280;65519;53.230;10.390;2023-04-25T11:52:48;100684.41;;;8.33;66.73
76627;BME280;65519;53.230;10.390;2023-04-25T11:55:18;100690.84;;;8.27;64.56
76627;BME280;65519;53.230;10.390;2023-04-25T11:57:47;100685.38;;;8.22;62.70
76627;BME280;65519;53.230;10.390;2023-04-25T12:00:15;100682.38;;;8.23;62.33
76627;BME280;65519;53.230;10.390;2023-04-25T12:02:46;100692.13;;;8.19;61.32
76627;BME280;65519;53.230;10.390;2023-04-25T12:05:14;100697.31;;;8.21;60.87
76627;BME280;65519;53.230;10.390;2023-04-25T12:07:40;100700.06;;;8.26;58.33
76627;BME280;65519;53.230;10.390;2023-04-25T12:12:33;100714.38;;;8.38;58.26
76627;BME280;65519;53.230;10.390;2023-04-25T12:15:11;100717.00;;;8.33;57.19
76627;BME280;65519;53.230;10.390;2023-04-25T12:17:38;100718.59;;;8.51;56.11
76627;BME280;65519;53.230;10.390;2023-04-25T12:20:13;100712.97;;;8.84;55.99
76627;BME280;65519;53.230;10.390;2023-04-25T12:22:41;100700.50;;;9.20;57.16
76627;BME280;65519;53.230;10.390;2023-04-25T12:25:10;100702.59;;;9.45;53.85
76627;BME280;65519;53.230;10.390;2023-04-25T12:27:35;100702.53;;;9.72;54.71
76627;BME280;65519;53.230;10.390;2023-04-25T12:30:02;100702.22;;;10.15;54.60
76627;BME280;65519;53.230;10.390;2023-04-25T12:32:28;100681.94;;;10.64;51.23
76627;BME280;65519;53.230;10.390;2023-04-25T12:34:54;100680.06;;;11.40;52.11
76627;BME280;65519;53.230;10.390;2023-04-25T12:37:20;100674.31;;;11.67;49.08
76627;BME280;65519;53.230;10.390;2023-04-25T12:39:46;100679.00;;;11.01;48.19
76627;BME280;65519;53.230;10.390;2023-04-25T12:42:11;100669.72;;;11.07;49.01
76627;BME280;65519;53.230;10.390;2023-04-25T12:44:37;100680.06;;;10.79;48.33
76627;BME280;65519;53.230;10.390;2023-04-25T12:47:03;100681.44;;;10.87;49.61
76627;BME280;65519;53.230;10.390;2023-04-25T12:49:28;100675.19;;;11.22;48.04
76627;BME280;65519;53.230;10.390;2023-04-25T12:51:54;100688.78;;;10.76;46.37
76627;BME280;65519;53.230;10.390;2023-04-25T12:54:19;100682.09;;;10.21;47.50
76627;BME280;65519;53.230;10.390;2023-04-25T12:56:45;100707.06;;;10.08;46.69